createdAt,value
2022-11-04T00:00:40.304Z,21.00
2022-11-04T00:03:08.931Z,19.67
2022-11-04T00:05:38.766Z,17.88
2022-11-04T00:08:25.112Z,16.08
2022-11-04T00:11:18.396Z,12.50
2022-11-04T00:13:55.023Z,11.48
2022-11-04T00:16:41.717Z,10.70
2022-11-04T00:19:10.793Z,11.10
2022-11-04T00:21:58.601Z,9.55
2022-11-04T00:24:44.839Z,11.48
2022-11-04T00:27:32.548Z,9.05
2022-11-04T00:30:00.508Z,8.32
2022-11-04T00:32:47.501Z,7.10
2022-11-04T00:35:17.654Z,7.25
2022-11-04T00:37:46.281Z,8.35
2022-11-04T00:40:16.037Z,12.57
2022-11-04T00:42:45.584Z,9.95
2022-11-04T00:45:13.509Z,7.80
2022-11-04T00:47:42.362Z,9.20
2022-11-04T00:50:12.456Z,8.88
2022-11-04T00:52:43.303Z,8.30
2022-11-04T00:55:12.325Z,10.73
2022-11-04T00:57:41.341Z,10.02
2022-11-04T01:00:11.689Z,8.32
2022-11-04T01:02:41.137Z,12.30
2022-11-04T01:05:10.742Z,9.60
2022-11-04T01:07:43.665Z,6.68
2022-11-04T01:10:16.034Z,6.68
2022-11-04T01:12:45.787Z,8.52
2022-11-04T01:15:13.518Z,9.25
2022-11-04T01:17:41.677Z,6.15
2022-11-04T01:20:14.102Z,8.20
2022-11-04T01:22:42.743Z,6.43
2022-11-04T01:25:12.093Z,9.60
2022-11-04T01:27:40.739Z,9.75
2022-11-04T01:30:10.503Z,10.02
2022-11-04T01:32:42.057Z,7.97
2022-11-04T01:35:10.016Z,9.65
2022-11-04T01:37:38.871Z,11.07
2022-11-04T01:40:07.321Z,14.80
2022-11-04T01:42:36.296Z,12.70
2022-11-04T01:45:05.564Z,12.18
2022-11-04T01:47:41.252Z,13.68
2022-11-04T01:50:23.309Z,13.43
2022-11-04T01:53:00.893Z,13.15
2022-11-04T01:55:35.267Z,18.15
2022-11-04T01:58:06.165Z,10.13
2022-11-04T02:00:35.307Z,13.50
2022-11-04T02:03:26.305Z,12.75
2022-11-04T02:05:54.337Z,9.93
2022-11-04T02:08:22.604Z,10.15
2022-11-04T02:11:03.590Z,7.57
2022-11-04T02:13:32.601Z,7.43
2022-11-04T02:16:16.009Z,7.30
2022-11-04T02:18:51.243Z,8.85
2022-11-04T02:21:37.518Z,8.38
2022-11-04T02:24:27.368Z,6.55
2022-11-04T02:27:26.156Z,7.88
2022-11-04T02:29:56.989Z,7.70
2022-11-04T02:32:30.752Z,8.73
2022-11-04T02:35:09.935Z,10.13
2022-11-04T02:37:58.432Z,8.90
2022-11-04T02:40:51.410Z,10.23
2022-11-04T02:43:22.635Z,9.90
2022-11-04T02:46:10.844Z,11.85
2022-11-04T02:48:48.453Z,11.57
2022-11-04T02:51:22.070Z,14.73
2022-11-04T02:54:06.862Z,12.52
2022-11-04T02:56:38.948Z,14.25
2022-11-04T02:59:39.499Z,13.60
2022-11-04T03:02:17.306Z,16.23
2022-11-04T03:04:49.209Z,13.13
2022-11-04T03:07:18.434Z,16.20
2022-11-04T03:09:50.182Z,15.85
2022-11-04T03:12:25.745Z,16.60
2022-11-04T03:15:00.313Z,17.83
2022-11-04T03:17:47.241Z,18.98
2022-11-04T03:20:22.292Z,17.88
2022-11-04T03:22:57.929Z,25.65
2022-11-04T03:25:38.145Z,22.65
2022-11-04T03:28:47.490Z,19.40
2022-11-04T03:31:29.933Z,17.88
2022-11-04T03:33:58.268Z,19.63
2022-11-04T03:36:26.921Z,23.50
2022-11-04T03:38:55.219Z,17.35
2022-11-04T03:41:57.383Z,18.52
2022-11-04T03:44:33.600Z,17.50
2022-11-04T03:47:01.644Z,22.45
2022-11-04T03:49:30.297Z,21.70
2022-11-04T03:52:01.462Z,25.23
2022-11-04T03:54:35.742Z,20.38
2022-11-04T03:57:30.907Z,22.02
2022-11-04T04:00:06.825Z,23.73
2022-11-04T04:02:40.299Z,20.05
2022-11-04T04:05:30.304Z,20.88
2022-11-04T04:08:20.274Z,22.45
2022-11-04T04:11:19.812Z,24.02
2022-11-04T04:14:34.293Z,21.02
2022-11-04T04:17:03.499Z,22.45
2022-11-04T04:19:32.024Z,24.80
2022-11-04T04:22:03.566Z,20.88
2022-11-04T04:24:54.322Z,19.35
2022-11-04T04:27:32.405Z,20.27
2022-11-04T04:30:15.995Z,24.15
2022-11-04T04:32:59.018Z,21.08
2022-11-04T04:35:44.369Z,22.23
2022-11-04T04:38:44.492Z,21.10
2022-11-04T04:41:39.328Z,19.27
2022-11-04T04:44:33.196Z,18.17
2022-11-04T04:47:01.067Z,16.45
2022-11-04T04:49:35.331Z,21.70
2022-11-04T04:52:04.762Z,18.50
2022-11-04T04:54:32.578Z,21.85
2022-11-04T04:57:01.639Z,19.05
2022-11-04T04:59:30.261Z,20.63
2022-11-04T05:01:58.687Z,20.10
2022-11-04T05:04:26.651Z,18.77
2022-11-04T05:06:56.043Z,20.55
2022-11-04T05:09:24.136Z,21.90
2022-11-04T05:11:53.593Z,20.40
2022-11-04T05:14:22.469Z,19.58
2022-11-04T05:16:50.531Z,20.30
2022-11-04T05:19:18.560Z,16.50
2022-11-04T05:21:46.881Z,15.07
2022-11-04T05:24:15.223Z,20.23
2022-11-04T05:26:44.086Z,15.68
2022-11-04T05:31:46.386Z,18.00
2022-11-04T05:34:15.356Z,13.80
2022-11-04T05:36:43.826Z,17.90
2022-11-04T05:39:14.148Z,15.70
2022-11-04T05:41:43.427Z,17.40
2022-11-04T05:44:13.136Z,14.18
2022-11-04T05:46:41.876Z,14.18
2022-11-04T05:49:09.973Z,14.80
2022-11-04T05:51:41.073Z,16.60
2022-11-04T05:54:09.511Z,17.30
2022-11-04T05:56:37.422Z,16.45
2022-11-04T05:59:08.100Z,19.27
2022-11-04T06:01:40.923Z,14.73
2022-11-04T06:04:13.851Z,21.38
2022-11-04T06:06:46.258Z,15.18
2022-11-04T06:09:15.105Z,16.67
2022-11-04T06:12:15.258Z,16.23
2022-11-04T06:14:48.103Z,17.33
2022-11-04T06:17:23.211Z,20.33
2022-11-04T06:19:55.569Z,17.00
2022-11-04T06:22:27.251Z,16.58
2022-11-04T06:24:55.328Z,17.50
2022-11-04T06:27:23.239Z,20.23
2022-11-04T06:29:55.925Z,18.13
2022-11-04T06:32:25.292Z,16.75
2022-11-04T06:34:53.744Z,17.35
2022-11-04T06:37:24.584Z,20.83
2022-11-04T06:39:59.364Z,17.52
2022-11-04T06:42:28.322Z,17.40
2022-11-04T06:44:58.923Z,20.48
2022-11-04T06:47:28.014Z,19.38
2022-11-04T06:49:56.094Z,18.23
2022-11-04T06:52:24.635Z,20.27
2022-11-04T06:54:58.844Z,17.25
2022-11-04T06:57:27.298Z,19.25
2022-11-04T06:59:56.522Z,24.35
2022-11-04T07:02:26.675Z,23.80
2022-11-04T07:04:55.582Z,16.63
2022-11-04T07:07:23.947Z,21.42
2022-11-04T07:09:51.834Z,21.02
2022-11-04T07:12:34.910Z,21.23
2022-11-04T07:15:09.584Z,20.60
2022-11-04T07:17:38.561Z,21.25
2022-11-04T07:20:07.636Z,18.88
2022-11-04T07:22:35.618Z,20.98
2022-11-04T07:25:03.631Z,18.90
2022-11-04T07:27:32.007Z,21.90
2022-11-04T07:30:00.291Z,21.20
2022-11-04T07:32:41.711Z,21.23
2022-11-04T07:35:10.007Z,20.58
2022-11-04T07:37:42.316Z,20.75
2022-11-04T07:40:11.010Z,18.75
2022-11-04T07:42:43.038Z,19.83
2022-11-04T07:45:18.265Z,20.08
2022-11-04T07:47:46.434Z,19.50
2022-11-04T07:50:14.829Z,25.20
2022-11-04T07:52:43.218Z,19.27
2022-11-04T07:55:14.305Z,20.92
2022-11-04T07:57:45.034Z,26.73
2022-11-04T08:00:17.614Z,31.08
2022-11-04T08:02:49.919Z,24.17
2022-11-04T08:05:18.323Z,21.17
2022-11-04T08:07:47.774Z,21.65
2022-11-04T08:10:16.982Z,22.85
2022-11-04T08:12:44.925Z,28.98
2022-11-04T08:15:13.292Z,21.92
2022-11-04T08:17:49.214Z,22.67
2022-11-04T08:20:24.201Z,20.92
2022-11-04T08:22:55.348Z,21.15
2022-11-04T08:25:25.205Z,19.85
2022-11-04T08:27:59.653Z,22.33
2022-11-04T08:30:29.010Z,21.20
2022-11-04T08:32:57.397Z,22.48
2022-11-04T08:35:41.036Z,22.80
2022-11-04T08:38:09.698Z,22.95
2022-11-04T08:40:38.175Z,27.90
2022-11-04T08:43:08.823Z,23.92
2022-11-04T08:45:55.579Z,24.60
2022-11-04T08:48:32.480Z,16.98
2022-11-04T08:51:03.563Z,18.25
2022-11-04T08:53:34.263Z,16.58
2022-11-04T08:56:19.064Z,18.52
2022-11-04T12:33:17.525Z,9.95
2022-11-04T12:35:57.644Z,9.32
2022-11-04T12:39:32.427Z,9.68
2022-11-04T12:42:22.437Z,9.20
2022-11-04T12:45:09.355Z,9.82
2022-11-04T12:47:38.170Z,9.40
2022-11-04T12:50:07.749Z,8.43
2022-11-04T12:53:03.418Z,7.78
2022-11-04T12:56:10.250Z,9.45
2022-11-04T12:58:59.683Z,12.10
2022-11-04T13:01:27.649Z,11.32
2022-11-04T13:04:07.076Z,12.93
2022-11-04T13:06:40.093Z,10.77
2022-11-04T13:09:30.915Z,9.75
2022-11-04T13:12:28.551Z,11.68
2022-11-04T13:15:02.179Z,10.25
2022-11-04T13:17:34.889Z,8.75
2022-11-04T13:20:33.428Z,13.20
2022-11-04T13:23:04.631Z,12.30
2022-11-04T13:25:43.104Z,12.63
2022-11-04T13:28:17.025Z,14.63
2022-11-04T13:31:16.177Z,20.92
2022-11-04T13:33:57.819Z,21.92
2022-11-04T13:36:34.152Z,23.77
2022-11-04T13:39:39.701Z,23.40
2022-11-04T13:42:29.479Z,25.15
2022-11-04T13:44:58.322Z,25.83
2022-11-04T13:47:36.460Z,27.00
2022-11-04T13:50:05.389Z,26.52
2022-11-04T13:52:36.403Z,32.17
2022-11-04T13:55:12.362Z,30.83
2022-11-04T14:00:41.919Z,28.75
2022-11-04T14:03:26.500Z,23.48
2022-11-04T14:06:12.172Z,29.98
2022-11-04T14:09:01.627Z,29.95
2022-11-04T14:11:37.896Z,25.40
2022-11-04T14:14:20.908Z,25.15
2022-11-04T14:16:51.265Z,21.60
2022-11-04T14:19:56.374Z,22.23
2022-11-04T14:22:34.175Z,24.40
2022-11-04T14:27:39.446Z,17.95
2022-11-04T14:30:14.641Z,19.05
2022-11-04T14:32:44.566Z,18.98
2022-11-04T14:35:17.648Z,18.52
2022-11-04T14:37:48.198Z,15.82
2022-11-04T14:40:30.303Z,20.30
2022-11-04T14:43:18.122Z,18.52
2022-11-04T14:45:49.177Z,18.65
2022-11-04T14:48:32.500Z,27.20
2022-11-04T14:51:01.012Z,34.53
2022-11-04T14:53:34.722Z,28.30
2022-11-04T14:56:21.909Z,35.33
2022-11-04T14:59:54.030Z,49.65
2022-11-04T15:02:29.991Z,47.97
2022-11-04T15:05:04.898Z,53.13
2022-11-04T15:07:41.216Z,54.30
2022-11-04T15:10:21.528Z,56.58
2022-11-04T15:14:25.844Z,47.60
2022-11-04T15:18:37.122Z,68.05
2022-11-04T15:22:08.916Z,86.53
2022-11-04T15:30:51.135Z,62.47
2022-11-04T15:34:10.254Z,57.30
2022-11-04T15:42:47.434Z,62.65
2022-11-04T15:45:47.479Z,49.90
2022-11-04T15:48:37.347Z,54.15
2022-11-04T15:52:01.483Z,62.78
2022-11-04T15:55:59.600Z,66.97
2022-11-04T15:59:00.490Z,57.75
2022-11-04T16:01:35.066Z,52.25
2022-11-04T16:04:06.189Z,50.08
2022-11-04T16:06:34.989Z,40.45
2022-11-04T16:09:11.088Z,45.28
2022-11-04T16:12:17.666Z,45.55
2022-11-04T16:14:51.153Z,38.70
2022-11-04T16:17:22.133Z,38.28
2022-11-04T16:20:02.235Z,40.45
2022-11-04T16:22:37.333Z,43.13
2022-11-04T16:25:12.523Z,32.90
2022-11-04T16:27:42.129Z,42.20
2022-11-04T16:30:20.915Z,30.60
2022-11-04T16:33:09.720Z,33.83
2022-11-04T16:36:12.815Z,34.20
2022-11-04T16:38:41.992Z,29.92
2022-11-04T16:41:10.979Z,35.78
2022-11-04T16:43:43.880Z,33.20
2022-11-04T16:46:12.361Z,34.80
2022-11-04T16:48:41.449Z,45.95
2022-11-04T16:51:20.621Z,68.95
2022-11-04T16:53:50.220Z,62.65
2022-11-04T16:56:19.199Z,61.63
2022-11-04T16:58:48.966Z,52.90
2022-11-04T17:01:16.954Z,47.35
2022-11-04T17:03:51.012Z,49.47
2022-11-04T17:06:19.227Z,45.47
2022-11-04T17:08:55.069Z,45.55
2022-11-04T17:11:22.968Z,43.17
2022-11-04T17:13:52.449Z,47.50
2022-11-04T17:16:21.850Z,44.75
2022-11-04T17:18:49.731Z,34.65
2022-11-04T17:21:21.945Z,39.88
2022-11-04T17:24:19.398Z,39.47
2022-11-04T17:26:47.333Z,40.33
2022-11-04T17:29:30.129Z,34.67
2022-11-04T17:31:59.359Z,33.50
2022-11-04T17:34:28.880Z,33.78
2022-11-04T17:36:57.889Z,35.80
2022-11-04T17:39:29.554Z,32.25
2022-11-04T17:42:15.777Z,35.17
2022-11-04T17:44:45.210Z,31.02
2022-11-04T17:47:14.259Z,31.63
2022-11-04T17:49:42.588Z,31.52
2022-11-04T17:52:16.826Z,33.78
2022-11-04T17:54:53.199Z,31.33
2022-11-04T17:57:22.229Z,33.47
2022-11-04T17:59:56.552Z,30.63
2022-11-04T18:02:30.059Z,35.22
2022-11-04T18:05:05.251Z,40.65
2022-11-04T18:07:34.259Z,37.72
2022-11-04T18:10:10.503Z,35.35
2022-11-04T18:12:41.570Z,33.45
2022-11-04T18:15:14.234Z,34.72
2022-11-04T18:17:46.759Z,32.92
2022-11-04T18:20:15.508Z,30.55
2022-11-04T18:22:44.069Z,27.00
2022-11-04T18:25:33.023Z,30.50
2022-11-04T18:28:04.329Z,29.00
2022-11-04T18:31:00.081Z,27.98
2022-11-04T18:33:34.556Z,29.15
2022-11-04T18:36:09.029Z,28.55
2022-11-04T18:38:37.132Z,29.92
2022-11-04T18:41:09.936Z,30.02
2022-11-04T18:43:40.586Z,30.77
2022-11-04T18:46:30.136Z,25.98
2022-11-04T18:48:58.267Z,23.55
2022-11-04T18:51:26.013Z,22.60
2022-11-04T18:53:57.175Z,22.85
2022-11-04T18:56:35.176Z,24.40
2022-11-04T18:59:09.315Z,21.67
2022-11-04T19:02:04.785Z,23.05
2022-11-04T19:05:02.570Z,21.42
2022-11-04T19:07:59.595Z,25.70
2022-11-04T19:11:01.498Z,28.23
2022-11-04T19:14:13.782Z,25.73
2022-11-04T19:16:53.655Z,24.30
2022-11-04T19:19:31.306Z,23.08
2022-11-04T19:22:06.625Z,25.25
2022-11-04T19:24:41.361Z,27.15
2022-11-04T19:33:08.285Z,24.85
2022-11-04T19:41:37.518Z,28.08
2022-11-04T19:44:55.472Z,32.30
2022-11-04T19:47:23.797Z,39.13
2022-11-04T19:49:56.105Z,30.20
2022-11-04T21:12:22.436Z,59.83
2022-11-04T21:14:54.992Z,59.55
2022-11-04T21:17:23.002Z,59.03
2022-11-04T21:23:52.704Z,67.95
2022-11-04T21:26:41.566Z,76.13
2022-11-04T21:29:13.332Z,75.68
2022-11-04T21:33:21.092Z,77.07
2022-11-04T21:35:53.848Z,71.82
2022-11-04T21:38:23.523Z,69.35
2022-11-04T21:40:52.753Z,65.53
2022-11-04T21:43:20.964Z,72.13
2022-11-04T21:45:50.712Z,69.90
2022-11-04T21:48:18.792Z,65.82
2022-11-04T21:50:46.476Z,65.32
2022-11-04T21:53:14.549Z,57.42
2022-11-04T21:55:43.756Z,60.83
2022-11-04T21:58:12.379Z,62.60
2022-11-04T22:00:40.862Z,70.68
2022-11-04T22:03:10.718Z,74.05
2022-11-04T22:05:38.708Z,65.03
2022-11-04T22:08:18.705Z,76.18
2022-11-04T22:10:49.933Z,94.18
2022-11-04T22:13:18.196Z,96.63
2022-11-04T22:16:01.109Z,91.38
2022-11-04T22:18:32.360Z,77.95
2022-11-04T22:21:03.979Z,81.32
2022-11-04T22:23:34.413Z,77.63
2022-11-04T22:26:13.476Z,69.00
2022-11-04T22:28:41.848Z,80.70
2022-11-04T22:31:15.370Z,71.32
2022-11-04T22:33:48.812Z,78.30
2022-11-04T22:36:16.829Z,63.83
2022-11-04T22:38:47.704Z,66.80
2022-11-04T22:41:18.399Z,62.38
2022-11-04T22:43:46.357Z,71.97
2022-11-04T22:46:19.748Z,66.38
2022-11-04T22:48:47.841Z,60.47
2022-11-04T22:51:16.106Z,57.50
2022-11-04T22:53:50.049Z,64.47
2022-11-04T22:56:22.795Z,61.13
2022-11-04T22:58:51.472Z,56.65
2022-11-04T23:01:19.309Z,59.67
2022-11-04T23:03:47.593Z,62.30
2022-11-04T23:06:15.822Z,56.28
2022-11-04T23:08:45.197Z,61.15
2022-11-04T23:11:39.218Z,61.67
2022-11-04T23:14:27.680Z,57.65
2022-11-04T23:17:15.082Z,61.33
2022-11-04T23:19:44.746Z,62.50
2022-11-04T23:22:31.457Z,58.90
2022-11-04T23:25:09.702Z,62.60
2022-11-04T23:28:06.926Z,58.85
2022-11-04T23:30:37.433Z,63.00
2022-11-04T23:33:08.021Z,60.10
2022-11-04T23:35:55.754Z,62.10
2022-11-04T23:38:24.135Z,62.67
2022-11-04T23:41:14.074Z,60.95
2022-11-04T23:43:41.947Z,63.28
2022-11-04T23:46:29.616Z,59.58
2022-11-04T23:49:15.871Z,60.10
2022-11-04T23:52:03.252Z,67.47
2022-11-04T23:54:51.076Z,68.05
2022-11-04T23:57:37.968Z,60.83
